createdAt,value
2023-04-18T00:00:02.603Z,68.90
2023-04-18T00:01:14.988Z,68.83
2023-04-18T00:02:20.721Z,68.86
2023-04-18T00:03:23.300Z,68.75
2023-04-18T00:04:26.295Z,68.74
2023-04-18T00:05:29.773Z,68.82
2023-04-18T00:06:32.559Z,68.91
2023-04-18T00:07:35.705Z,68.99
2023-04-18T00:08:38.007Z,68.77
2023-04-18T00:09:40.748Z,68.69
2023-04-18T00:10:43.108Z,68.81
2023-04-18T00:11:45.585Z,68.75
2023-04-18T00:12:47.841Z,68.70
2023-04-18T00:13:50.052Z,68.82
2023-04-18T00:14:52.371Z,68.84
2023-04-18T00:15:55.312Z,68.77
2023-04-18T00:16:57.699Z,68.93
2023-04-18T00:18:03.795Z,69.01
2023-04-18T00:19:06.398Z,69.08
2023-04-18T00:20:13.057Z,68.99
2023-04-18T00:21:17.520Z,69.02
2023-04-18T00:22:22.636Z,69.06
2023-04-18T00:23:28.274Z,69.13
2023-04-18T00:24:30.663Z,69.03
2023-04-18T00:25:32.955Z,68.87
2023-04-18T00:26:35.188Z,68.91
2023-04-18T00:27:41.707Z,69.14
2023-04-18T00:28:43.981Z,69.01
2023-04-18T00:29:47.390Z,68.92
2023-04-18T00:30:51.836Z,68.94
2023-04-18T00:31:54.097Z,68.97
2023-04-18T00:32:56.995Z,68.91
2023-04-18T00:34:00.166Z,68.94
2023-04-18T00:35:02.509Z,68.88
2023-04-18T00:36:05.273Z,68.91
2023-04-18T00:37:07.855Z,68.93
2023-04-18T00:38:10.151Z,69.00
2023-04-18T00:39:12.559Z,69.01
2023-04-18T00:40:16.692Z,69.03
2023-04-18T00:41:20.186Z,69.00
2023-04-18T00:42:22.667Z,69.01
2023-04-18T00:43:25.028Z,69.04
2023-04-18T00:44:27.276Z,69.12
2023-04-18T00:45:29.595Z,69.04
2023-04-18T00:46:32.582Z,69.13
2023-04-18T00:47:34.892Z,69.14
2023-04-18T00:48:39.313Z,69.03
2023-04-18T00:49:41.682Z,69.03
2023-04-18T00:50:44.119Z,69.04
2023-04-18T00:51:46.990Z,68.91
2023-04-18T00:52:49.682Z,68.82
2023-04-18T00:53:52.320Z,68.92
2023-04-18T00:54:55.836Z,68.83
2023-04-18T00:55:58.168Z,68.97
2023-04-18T00:57:01.005Z,68.74
2023-04-18T00:58:03.288Z,68.88
2023-04-18T00:59:07.561Z,68.72
2023-04-18T01:00:10.583Z,68.96
2023-04-18T01:01:13.629Z,68.69
2023-04-18T01:02:16.033Z,68.74
2023-04-18T01:03:18.605Z,68.83
2023-04-18T01:04:21.823Z,68.81
2023-04-18T01:05:24.946Z,68.71
2023-04-18T01:06:27.438Z,68.76
2023-04-18T01:07:31.373Z,68.84
2023-04-18T01:08:33.942Z,68.71
2023-04-18T01:09:37.094Z,68.62
2023-04-18T01:10:39.355Z,68.65
2023-04-18T01:11:41.641Z,68.67
2023-04-18T01:12:44.869Z,68.65
2023-04-18T01:14:07.508Z,68.63
2023-04-18T01:15:12.177Z,68.54
2023-04-18T01:16:14.473Z,68.73
2023-04-18T01:17:17.676Z,68.46
2023-04-18T01:18:21.037Z,68.61
2023-04-18T01:19:23.360Z,68.49
2023-04-18T01:20:26.556Z,68.48
2023-04-18T01:21:31.532Z,68.36
2023-04-18T01:22:34.212Z,68.38
2023-04-18T01:23:36.636Z,68.34
2023-04-18T01:24:39.595Z,68.40
2023-04-18T01:25:42.829Z,68.19
2023-04-18T01:26:49.303Z,68.04
2023-04-18T01:27:51.792Z,68.04
2023-04-18T01:28:54.129Z,67.87
2023-04-18T01:29:56.431Z,67.88
2023-04-18T01:30:59.206Z,67.87
2023-04-18T01:32:02.810Z,67.86
2023-04-18T01:33:05.864Z,67.84
2023-04-18T01:34:08.597Z,67.81
2023-04-18T01:35:11.301Z,68.05
2023-04-18T01:36:13.604Z,67.97
2023-04-18T01:37:15.858Z,67.88
2023-04-18T01:38:18.154Z,67.84
2023-04-18T01:39:20.481Z,67.99
2023-04-18T01:40:23.351Z,68.00
2023-04-18T01:41:25.872Z,67.76
2023-04-18T01:42:28.133Z,67.94
2023-04-18T01:43:30.416Z,67.99
2023-04-18T01:44:32.641Z,67.87
2023-04-18T01:45:34.872Z,67.87
2023-04-18T01:46:37.391Z,67.82
2023-04-18T01:47:39.931Z,67.77
2023-04-18T01:48:42.532Z,67.84
2023-04-18T01:49:48.333Z,67.66
2023-04-18T01:50:50.892Z,67.72
2023-04-18T01:51:53.175Z,67.63
2023-04-18T01:52:57.069Z,67.54
2023-04-18T01:53:59.332Z,67.61
2023-04-18T01:55:04.518Z,67.59
2023-04-18T01:56:06.974Z,67.50
2023-04-18T01:57:10.517Z,67.59
2023-04-18T01:58:13.632Z,67.40
2023-04-18T01:59:15.865Z,67.49
2023-04-18T02:00:18.571Z,67.53
2023-04-18T02:01:20.938Z,67.40
2023-04-18T02:02:23.535Z,67.51
2023-04-18T02:03:27.528Z,67.53
2023-04-18T02:04:29.958Z,67.43
2023-04-18T02:05:32.226Z,67.48
2023-04-18T02:06:35.010Z,67.45
2023-04-18T02:07:37.330Z,67.43
2023-04-18T02:08:39.565Z,67.51
2023-04-18T02:09:41.974Z,67.52
2023-04-18T02:10:46.667Z,67.54
2023-04-18T02:11:48.967Z,67.46
2023-04-18T02:12:51.308Z,67.52
2023-04-18T02:13:53.693Z,67.62
2023-04-18T02:14:56.093Z,67.35
2023-04-18T02:15:58.345Z,67.35
2023-04-18T02:17:01.110Z,67.29
2023-04-18T02:18:03.590Z,67.30
2023-04-18T02:19:06.603Z,67.32
2023-04-18T02:20:11.023Z,67.32
2023-04-18T02:21:13.363Z,67.07
2023-04-18T02:22:15.840Z,67.08
2023-04-18T02:23:18.503Z,67.01
2023-04-18T02:24:20.792Z,67.10
2023-04-18T02:25:24.402Z,67.09
2023-04-18T02:26:26.623Z,67.14
2023-04-18T02:27:33.029Z,67.17
2023-04-18T02:28:35.348Z,67.12
2023-04-18T02:29:38.887Z,67.10
2023-04-18T02:30:41.231Z,67.25
2023-04-18T02:31:43.510Z,67.07
2023-04-18T02:32:45.933Z,67.08
2023-04-18T02:33:48.668Z,67.10
2023-04-18T02:34:50.980Z,67.01
2023-04-18T02:35:53.271Z,67.23
2023-04-18T02:36:55.583Z,66.93
2023-04-18T02:37:57.800Z,66.90
2023-04-18T02:39:00.481Z,66.81
2023-04-18T02:40:05.073Z,66.81
2023-04-18T02:41:08.048Z,66.78
2023-04-18T02:42:10.338Z,66.62
2023-04-18T02:43:12.663Z,66.78
2023-04-18T02:44:15.124Z,66.63
2023-04-18T02:45:17.876Z,66.58
2023-04-18T02:46:20.165Z,66.65
2023-04-18T02:47:24.167Z,66.49
2023-04-18T02:48:26.503Z,66.48
2023-04-18T02:49:29.030Z,66.34
2023-04-18T02:50:32.222Z,66.34
2023-04-18T02:51:34.558Z,66.35
2023-04-18T02:52:37.225Z,66.29
2023-04-18T02:53:39.585Z,66.39
2023-04-18T02:54:42.096Z,66.25
2023-04-18T02:55:49.338Z,66.11
2023-04-18T02:56:55.324Z,66.12
2023-04-18T02:58:01.223Z,66.03
2023-04-18T02:59:29.090Z,66.09
2023-04-18T03:00:47.078Z,66.07
2023-04-18T03:02:05.862Z,66.05
2023-04-18T03:03:10.619Z,65.84
2023-04-18T03:04:26.011Z,65.99
2023-04-18T03:05:32.929Z,65.89
2023-04-18T03:06:38.817Z,66.00
2023-04-18T03:07:43.912Z,65.96
2023-04-18T03:08:46.254Z,65.92
2023-04-18T03:09:49.139Z,66.07
2023-04-18T03:11:01.062Z,66.07
2023-04-18T03:12:05.777Z,66.06
2023-04-18T03:13:09.730Z,66.09
2023-04-18T03:14:12.485Z,66.05
2023-04-18T03:15:21.261Z,66.05
2023-04-18T03:16:24.163Z,66.00
2023-04-18T03:17:26.620Z,66.12
2023-04-18T03:18:28.907Z,65.93
2023-04-18T03:19:34.711Z,66.04
2023-04-18T03:20:41.610Z,66.05
2023-04-18T03:21:43.938Z,66.04
2023-04-18T03:22:47.441Z,65.92
2023-04-18T03:23:53.449Z,65.95
2023-04-18T03:24:57.994Z,65.91
2023-04-18T03:26:15.146Z,65.89
2023-04-18T03:27:19.765Z,65.85
2023-04-18T03:28:22.951Z,65.89
2023-04-18T03:29:25.622Z,65.89
2023-04-18T03:30:28.357Z,65.81
2023-04-18T03:31:33.761Z,65.82
2023-04-18T03:32:36.647Z,65.91
2023-04-18T03:33:39.423Z,66.02
2023-04-18T03:34:45.475Z,65.80
2023-04-18T03:35:47.788Z,65.87
2023-04-18T03:36:50.128Z,65.79
2023-04-18T03:37:52.826Z,65.78
2023-04-18T03:39:01.132Z,65.69
2023-04-18T03:40:05.524Z,65.70
2023-04-18T03:41:07.920Z,65.59
2023-04-18T03:42:12.364Z,65.61
2023-04-18T03:43:16.340Z,65.63
2023-04-18T03:44:18.644Z,65.69
2023-04-18T03:45:21.272Z,65.51
2023-04-18T03:46:24.774Z,65.58
2023-04-18T03:47:32.119Z,65.53
2023-04-18T03:48:37.439Z,65.51
2023-04-18T03:49:44.051Z,65.50
2023-04-18T03:50:46.921Z,65.42
2023-04-18T03:51:50.481Z,65.59
2023-04-18T03:52:53.542Z,65.59
2023-04-18T03:53:55.805Z,65.63
2023-04-18T03:54:59.224Z,65.59
2023-04-18T03:56:08.154Z,65.50
2023-04-18T03:57:30.653Z,65.59
2023-04-18T03:58:33.383Z,65.61
2023-04-18T03:59:36.098Z,65.62
2023-04-18T04:00:38.424Z,65.71
2023-04-18T04:01:44.181Z,65.74
2023-04-18T04:02:46.558Z,65.64
2023-04-18T04:03:55.099Z,65.59
2023-04-18T04:04:58.082Z,65.62
2023-04-18T04:06:01.184Z,65.74
2023-04-18T04:07:03.680Z,65.68
2023-04-18T04:08:06.195Z,65.70
2023-04-18T04:09:09.518Z,65.73
2023-04-18T04:10:11.896Z,65.73
2023-04-18T04:11:14.184Z,65.78
2023-04-18T04:12:16.682Z,65.76
2023-04-18T04:13:19.296Z,65.61
2023-04-18T04:14:22.909Z,65.63
2023-04-18T04:15:25.167Z,65.61
2023-04-18T04:16:33.518Z,65.62
2023-04-18T04:17:36.215Z,65.74
2023-04-18T04:18:38.848Z,65.62
2023-04-18T04:19:41.143Z,65.67
2023-04-18T04:20:50.573Z,65.76
2023-04-18T04:22:05.714Z,65.76
2023-04-18T04:23:08.612Z,65.76
2023-04-18T04:24:13.905Z,65.72
2023-04-18T04:25:20.379Z,65.62
2023-04-18T04:26:23.880Z,65.71
2023-04-18T04:27:36.876Z,65.67
2023-04-18T04:28:43.138Z,65.54
2023-04-18T04:29:46.260Z,65.56
2023-04-18T04:30:51.327Z,65.42
2023-04-18T04:31:53.700Z,65.44
2023-04-18T04:33:04.643Z,65.38
2023-04-18T04:34:07.256Z,65.33
2023-04-18T04:35:10.015Z,65.31
2023-04-18T04:36:16.706Z,65.32
2023-04-18T04:37:21.025Z,65.34
2023-04-18T04:38:46.095Z,65.22
2023-04-18T04:39:48.750Z,65.41
2023-04-18T04:41:08.012Z,65.41
2023-04-18T04:42:12.368Z,65.38
2023-04-18T04:43:25.698Z,65.51
2023-04-18T04:44:31.572Z,65.55
2023-04-18T04:45:34.564Z,65.63
2023-04-18T04:46:40.419Z,65.68
2023-04-18T04:47:50.759Z,65.56
2023-04-18T04:48:54.630Z,65.70
2023-04-18T04:49:56.927Z,65.58
2023-04-18T04:51:01.247Z,65.66
2023-04-18T04:52:04.960Z,65.56
2023-04-18T04:53:08.734Z,65.40
2023-04-18T04:54:12.743Z,65.55
2023-04-18T04:55:17.607Z,65.55
2023-04-18T04:56:23.216Z,65.62
2023-04-18T04:57:25.777Z,65.55
2023-04-18T04:58:30.038Z,65.58
2023-04-18T04:59:44.978Z,65.70
2023-04-18T05:00:48.082Z,65.71
2023-04-18T05:01:51.717Z,65.72
2023-04-18T05:02:56.293Z,65.76
2023-04-18T05:04:00.854Z,65.67
2023-04-18T05:05:03.305Z,65.72
2023-04-18T05:06:06.018Z,65.66
2023-04-18T05:07:08.289Z,65.74
2023-04-18T05:08:10.608Z,65.52
2023-04-18T05:09:15.768Z,65.63
2023-04-18T05:10:19.444Z,65.69
2023-04-18T05:11:22.088Z,65.66
2023-04-18T05:12:24.413Z,65.62
2023-04-18T05:13:26.647Z,65.55
2023-04-18T05:14:29.260Z,65.64
2023-04-18T05:15:31.903Z,65.63
2023-04-18T05:16:36.052Z,65.72
2023-04-18T05:17:38.457Z,65.63
2023-04-18T05:18:41.603Z,65.73
2023-04-18T05:19:44.408Z,65.71
2023-04-18T05:20:46.681Z,65.80
2023-04-18T05:21:53.442Z,65.76
2023-04-18T05:22:55.747Z,65.97
2023-04-18T05:23:58.011Z,66.00
2023-04-18T05:25:00.398Z,65.94
2023-04-18T05:26:06.654Z,65.93
2023-04-18T05:27:08.995Z,65.79
2023-04-18T05:28:11.241Z,65.72
2023-04-18T05:29:14.251Z,65.72
2023-04-18T05:30:16.782Z,65.83
2023-04-18T05:31:19.082Z,65.78
2023-04-18T05:32:21.747Z,65.82
2023-04-18T05:33:24.105Z,65.94
2023-04-18T05:34:26.477Z,65.98
2023-04-18T05:35:29.122Z,66.01
2023-04-18T05:36:32.529Z,65.92
2023-04-18T05:37:35.958Z,65.96
2023-04-18T05:38:39.317Z,65.85
2023-04-18T05:39:42.050Z,66.01
2023-04-18T05:40:44.446Z,65.91
2023-04-18T05:41:47.037Z,65.88
2023-04-18T05:42:49.325Z,65.84
2023-04-18T05:44:02.408Z,65.81
2023-04-18T05:45:08.450Z,65.95
2023-04-18T05:46:12.662Z,65.90
2023-04-18T05:47:15.040Z,65.92
2023-04-18T05:48:17.389Z,66.02
2023-04-18T05:49:21.294Z,65.92
2023-04-18T05:50:24.050Z,65.94
2023-04-18T05:51:26.922Z,65.84
2023-04-18T05:52:29.516Z,65.85
2023-04-18T05:53:31.866Z,65.90
2023-04-18T05:54:34.117Z,65.88
2023-04-18T05:55:36.796Z,65.85
2023-04-18T05:56:39.178Z,65.83
2023-04-18T05:57:41.748Z,65.89
2023-04-18T05:58:45.743Z,65.91
2023-04-18T05:59:48.207Z,65.92
2023-04-18T06:00:50.466Z,65.89
2023-04-18T06:01:53.190Z,65.80
2023-04-18T06:02:55.545Z,65.76
2023-04-18T06:03:58.879Z,65.77
2023-04-18T06:05:01.699Z,65.80
2023-04-18T06:06:04.324Z,65.86
2023-04-18T06:07:06.649Z,66.10
2023-04-18T06:08:09.103Z,65.92
2023-04-18T06:09:12.746Z,65.99
2023-04-18T06:10:15.942Z,65.94
2023-04-18T06:11:20.329Z,66.03
2023-04-18T06:12:22.656Z,65.96
2023-04-18T06:13:24.981Z,65.98
2023-04-18T06:14:27.915Z,66.03
2023-04-18T06:15:30.235Z,66.15
2023-04-18T06:16:33.856Z,66.08
2023-04-18T06:17:36.244Z,66.09
2023-04-18T06:18:39.157Z,66.22
2023-04-18T06:19:41.447Z,66.15
2023-04-18T06:20:45.486Z,66.16
2023-04-18T06:21:48.999Z,66.25
2023-04-18T06:22:51.240Z,66.38
2023-04-18T06:23:53.553Z,66.34
2023-04-18T06:24:56.615Z,66.31
2023-04-18T06:25:59.563Z,66.41
2023-04-18T06:27:02.091Z,66.35
2023-04-18T06:28:05.942Z,66.35
2023-04-18T06:29:08.291Z,66.42
2023-04-18T06:30:11.290Z,66.38
2023-04-18T06:31:14.740Z,66.31
2023-04-18T06:32:17.451Z,66.40
2023-04-18T06:33:21.510Z,66.48
2023-04-18T06:34:27.864Z,66.40
2023-04-18T06:35:31.478Z,66.33
2023-04-18T06:36:37.283Z,66.39
2023-04-18T06:37:42.620Z,66.37
2023-04-18T06:38:45.359Z,66.42
2023-04-18T06:39:47.762Z,66.47
2023-04-18T06:40:50.072Z,66.38
2023-04-18T06:41:52.369Z,66.39
2023-04-18T06:43:03.359Z,66.40
2023-04-18T06:44:07.067Z,66.35
2023-04-18T06:45:12.839Z,66.36
2023-04-18T06:46:15.204Z,66.38
2023-04-18T06:47:17.709Z,66.38
2023-04-18T06:48:20.001Z,66.49
2023-04-18T06:49:26.348Z,66.54
2023-04-18T06:50:29.480Z,66.70
2023-04-18T06:51:32.013Z,66.64
2023-04-18T06:52:35.949Z,66.56
2023-04-18T06:53:38.327Z,66.68
2023-04-18T06:54:41.151Z,66.48
2023-04-18T06:55:43.548Z,66.70
2023-04-18T06:56:46.338Z,66.76
2023-04-18T06:57:48.599Z,66.78
2023-04-18T06:58:53.092Z,66.81
2023-04-18T06:59:55.486Z,66.81
2023-04-18T07:00:57.899Z,66.86
2023-04-18T07:02:00.627Z,66.94
2023-04-18T07:03:11.431Z,66.88
2023-04-18T07:04:14.626Z,66.91
2023-04-18T07:05:19.036Z,66.85
2023-04-18T07:06:21.933Z,66.87
2023-04-18T07:07:24.713Z,66.93
2023-04-18T07:08:27.024Z,66.99
2023-04-18T07:09:29.532Z,66.86
2023-04-18T07:10:32.387Z,67.05
2023-04-18T07:11:34.903Z,67.10
2023-04-18T07:12:38.643Z,67.12
2023-04-18T07:13:40.930Z,67.07
2023-04-18T07:14:43.249Z,67.05
2023-04-18T07:15:45.630Z,67.06
2023-04-18T07:16:47.938Z,67.11
2023-04-18T07:17:50.286Z,67.11
2023-04-18T07:18:52.540Z,66.92
2023-04-18T07:19:55.180Z,66.96
2023-04-18T07:20:58.018Z,67.00
2023-04-18T07:22:00.878Z,66.87
2023-04-18T07:23:03.280Z,66.80
2023-04-18T07:24:05.725Z,66.74
2023-04-18T07:25:11.100Z,66.65
2023-04-18T07:26:13.912Z,66.58
2023-04-18T07:27:16.732Z,66.65
2023-04-18T07:28:19.161Z,66.48
2023-04-18T07:29:21.502Z,66.58
2023-04-18T07:30:24.248Z,66.42
2023-04-18T07:31:28.702Z,66.56
2023-04-18T07:32:31.785Z,66.56
2023-04-18T07:33:35.491Z,66.55
2023-04-18T07:34:37.916Z,66.47
2023-04-18T07:35:40.752Z,66.42
2023-04-18T07:36:43.007Z,66.30
2023-04-18T07:37:46.005Z,66.29
2023-04-18T07:38:49.663Z,66.21
2023-04-18T07:39:52.940Z,66.13
2023-04-18T07:40:59.710Z,66.07
2023-04-18T07:42:05.256Z,65.97
2023-04-18T07:43:07.652Z,65.93
2023-04-18T07:44:09.971Z,65.84
2023-04-18T07:45:12.191Z,65.80
2023-04-18T07:46:14.652Z,65.76
2023-04-18T07:47:17.359Z,65.74
2023-04-18T07:48:22.872Z,65.69
2023-04-18T07:49:25.164Z,65.69
2023-04-18T07:50:30.517Z,65.76
2023-04-18T07:51:32.868Z,65.61
2023-04-18T07:52:36.325Z,65.65
2023-04-18T07:53:41.292Z,65.67
2023-04-18T07:54:43.897Z,65.69
2023-04-18T07:55:48.479Z,65.88
2023-04-18T07:56:54.187Z,65.83
2023-04-18T07:57:58.730Z,65.75
2023-04-18T07:59:02.000Z,65.68
2023-04-18T08:00:05.090Z,65.76
2023-04-18T08:01:18.570Z,65.72
2023-04-18T08:02:21.821Z,65.67
2023-04-18T08:03:24.545Z,65.69
2023-04-18T08:04:28.360Z,65.74
2023-04-18T08:05:32.477Z,65.81
2023-04-18T08:06:36.638Z,65.81
2023-04-18T08:07:40.048Z,65.83
2023-04-18T08:08:44.151Z,65.93
2023-04-18T08:09:46.659Z,65.80
2023-04-18T08:10:49.686Z,65.81
2023-04-18T08:11:52.060Z,65.74
2023-04-18T08:12:55.152Z,65.84
2023-04-18T08:14:01.337Z,65.83
2023-04-18T08:15:04.514Z,65.76
2023-04-18T08:16:08.973Z,65.79
2023-04-18T08:17:11.245Z,65.93
2023-04-18T08:18:14.003Z,65.81
2023-04-18T08:19:16.616Z,65.76
2023-04-18T08:20:19.131Z,65.74
2023-04-18T08:21:22.159Z,65.78
2023-04-18T08:22:24.422Z,65.77
2023-04-18T08:23:26.856Z,65.83
2023-04-18T08:24:30.082Z,65.82
2023-04-18T08:25:35.618Z,65.82
2023-04-18T08:26:38.652Z,65.84
2023-04-18T08:27:41.157Z,65.76
2023-04-18T08:28:46.570Z,65.73
2023-04-18T08:29:50.635Z,65.71
2023-04-18T08:30:56.068Z,65.70
2023-04-18T08:32:01.755Z,65.71
2023-04-18T08:33:04.136Z,65.60
2023-04-18T08:34:07.915Z,65.53
2023-04-18T08:35:10.517Z,65.57
2023-04-18T08:36:13.164Z,65.58
2023-04-18T08:37:16.485Z,65.58
2023-04-18T08:38:19.420Z,65.58
2023-04-18T08:39:23.186Z,65.51
2023-04-18T08:40:27.150Z,65.40
2023-04-18T08:41:35.971Z,65.35
2023-04-18T08:42:38.808Z,65.27
2023-04-18T08:43:41.054Z,65.23
2023-04-18T08:44:43.496Z,65.28
2023-04-18T08:45:46.088Z,65.19
2023-04-18T08:46:49.581Z,65.26
2023-04-18T08:47:52.729Z,65.09
2023-04-18T08:48:58.753Z,65.02
2023-04-18T08:50:01.825Z,64.97
2023-04-18T08:51:05.187Z,65.02
2023-04-18T08:52:13.622Z,64.81
2023-04-18T08:53:17.888Z,64.91
2023-04-18T08:54:22.679Z,64.83
2023-04-18T08:55:26.028Z,64.82
2023-04-18T08:56:29.597Z,64.68
2023-04-18T08:57:33.635Z,64.67
2023-04-18T08:58:35.933Z,64.62
2023-04-18T08:59:38.821Z,64.64
2023-04-18T09:00:41.842Z,64.71
2023-04-18T09:01:56.652Z,64.66
2023-04-18T09:03:00.201Z,64.42
2023-04-18T09:04:03.191Z,64.40
2023-04-18T09:05:14.508Z,64.38
2023-04-18T09:06:22.017Z,64.43
2023-04-18T09:07:30.089Z,64.38
2023-04-18T09:08:32.323Z,64.46
2023-04-18T09:09:51.109Z,64.38
2023-04-18T09:10:53.773Z,64.35
2023-04-18T09:12:10.196Z,64.19
2023-04-18T09:13:12.669Z,64.30
2023-04-18T09:14:26.514Z,64.27
2023-04-18T09:15:31.004Z,64.10
2023-04-18T09:16:47.219Z,64.03
2023-04-18T09:17:54.535Z,63.95
2023-04-18T09:19:15.052Z,63.95
2023-04-18T09:20:35.771Z,63.72
2023-04-18T09:21:47.950Z,63.55
2023-04-18T09:22:57.894Z,63.41
2023-04-18T09:24:17.815Z,63.39
2023-04-18T09:25:36.133Z,63.32
2023-04-18T09:26:39.572Z,63.39
2023-04-18T09:27:42.122Z,63.23
2023-04-18T09:28:53.929Z,63.27
2023-04-18T09:29:58.009Z,63.26
2023-04-18T09:31:13.169Z,63.35
2023-04-18T09:32:27.308Z,63.18
2023-04-18T09:33:35.588Z,63.19
2023-04-18T09:34:42.734Z,63.20
2023-04-18T09:35:45.535Z,63.17
2023-04-18T09:37:04.842Z,63.17
2023-04-18T09:38:08.178Z,63.14
2023-04-18T09:39:25.878Z,63.10
2023-04-18T09:40:29.918Z,63.09
2023-04-18T09:41:32.852Z,63.18
2023-04-18T09:42:38.298Z,63.13
2023-04-18T09:43:40.779Z,63.01
2023-04-18T09:45:06.120Z,63.03
2023-04-18T09:46:09.668Z,62.98
2023-04-18T09:47:11.949Z,62.62
2023-04-18T09:48:14.270Z,62.72
2023-04-18T09:49:17.801Z,62.71
2023-04-18T09:50:21.125Z,62.72
2023-04-18T09:51:23.525Z,62.68
2023-04-18T09:52:26.274Z,62.64
2023-04-18T09:53:29.603Z,62.64
2023-04-18T09:54:33.202Z,62.33
2023-04-18T09:55:36.252Z,62.57
2023-04-18T09:56:42.939Z,62.60
2023-04-18T09:57:47.661Z,62.44
2023-04-18T09:58:56.578Z,62.34
2023-04-18T10:00:04.341Z,62.29
2023-04-18T10:01:08.671Z,62.48
2023-04-18T10:02:19.775Z,62.43
2023-04-18T10:03:26.678Z,62.42
2023-04-18T10:04:31.141Z,62.33
2023-04-18T10:05:36.108Z,62.39
2023-04-18T10:06:42.182Z,62.55
2023-04-18T10:07:46.574Z,62.52
2023-04-18T10:08:50.570Z,62.57
2023-04-18T10:09:53.813Z,62.52
2023-04-18T10:10:59.090Z,62.52
2023-04-18T10:12:02.883Z,62.54
2023-04-18T10:13:07.340Z,62.82
2023-04-18T10:14:13.339Z,62.88
2023-04-18T10:15:18.060Z,62.94
2023-04-18T10:16:20.989Z,62.90
2023-04-18T10:17:23.934Z,62.85
2023-04-18T10:18:26.388Z,63.02
2023-04-18T10:19:30.259Z,62.92
2023-04-18T10:20:35.129Z,62.92
2023-04-18T10:21:38.295Z,63.31
2023-04-18T10:22:40.600Z,63.02
2023-04-18T10:23:42.862Z,63.01
2023-04-18T10:24:54.743Z,63.22
2023-04-18T10:25:57.243Z,63.31
2023-04-18T10:26:59.466Z,63.20
2023-04-18T10:28:02.812Z,63.16
2023-04-18T10:29:05.173Z,63.15
2023-04-18T10:30:09.170Z,63.06
2023-04-18T10:31:13.153Z,62.94
2023-04-18T10:32:16.536Z,63.05
2023-04-18T10:33:33.789Z,63.09
2023-04-18T10:34:37.789Z,63.12
2023-04-18T10:35:59.484Z,63.22
2023-04-18T10:37:06.050Z,63.07
2023-04-18T10:38:16.824Z,63.25
2023-04-18T10:39:23.884Z,63.16
2023-04-18T10:40:34.468Z,63.37
2023-04-18T10:41:49.479Z,63.22
2023-04-18T10:42:52.864Z,63.44
2023-04-18T10:44:10.520Z,63.42
2023-04-18T10:45:26.959Z,63.48
2023-04-18T10:46:32.857Z,63.68
2023-04-18T10:47:35.513Z,63.84
2023-04-18T10:48:39.384Z,63.70
2023-04-18T10:49:53.882Z,63.82
2023-04-18T10:51:16.352Z,63.62
2023-04-18T10:52:19.055Z,63.65
2023-04-18T10:53:21.430Z,63.86
2023-04-18T10:54:47.617Z,63.92
2023-04-18T10:55:55.379Z,63.90
2023-04-18T10:56:59.936Z,63.94
2023-04-18T10:58:03.533Z,64.08
2023-04-18T10:59:06.593Z,63.93
2023-04-18T11:00:14.597Z,63.78
2023-04-18T11:01:24.820Z,63.90
2023-04-18T11:02:31.068Z,64.13
2023-04-18T11:03:34.576Z,64.18
2023-04-18T11:04:38.123Z,64.03
2023-04-18T11:05:40.744Z,64.25
2023-04-18T11:06:50.566Z,64.21
2023-04-18T11:07:53.780Z,64.23
2023-04-18T11:09:13.845Z,64.14
2023-04-18T11:10:25.637Z,63.92
2023-04-18T11:11:27.983Z,63.92
2023-04-18T11:12:35.805Z,63.72
2023-04-18T11:13:54.816Z,63.71
2023-04-18T11:14:57.222Z,63.70
2023-04-18T11:15:59.685Z,63.71
2023-04-18T11:17:19.446Z,63.71
2023-04-18T11:18:21.804Z,63.63
2023-04-18T11:19:26.029Z,63.75
2023-04-18T11:20:31.249Z,63.60
2023-04-18T11:21:33.586Z,63.68
2023-04-18T11:22:49.947Z,63.54
2023-04-18T11:23:52.316Z,63.73
2023-04-18T11:25:01.176Z,63.61
2023-04-18T11:26:03.559Z,63.47
2023-04-18T11:27:08.556Z,63.72
2023-04-18T11:28:13.755Z,63.62
2023-04-18T11:29:19.565Z,63.69
2023-04-18T11:30:22.192Z,63.63
2023-04-18T11:31:25.395Z,63.88
2023-04-18T11:32:27.864Z,63.71
2023-04-18T11:33:31.539Z,63.65
2023-04-18T11:34:34.202Z,63.80
2023-04-18T11:35:44.464Z,63.66
2023-04-18T11:36:51.315Z,63.83
2023-04-18T11:37:54.574Z,63.84
2023-04-18T11:38:56.924Z,63.93
2023-04-18T11:39:59.481Z,63.90
2023-04-18T11:41:04.976Z,63.92
2023-04-18T11:42:07.282Z,63.99
2023-04-18T11:43:09.702Z,63.91
2023-04-18T11:44:12.181Z,64.05
2023-04-18T11:45:16.060Z,63.91
2023-04-18T11:46:18.503Z,63.99
2023-04-18T11:47:28.983Z,63.97
2023-04-18T11:48:41.950Z,63.91
2023-04-18T11:49:44.331Z,63.99
2023-04-18T11:50:46.659Z,63.99
2023-04-18T11:51:48.884Z,64.08
2023-04-18T11:52:52.425Z,64.15
2023-04-18T11:53:57.088Z,64.17
2023-04-18T11:55:25.193Z,64.25
2023-04-18T11:56:27.545Z,64.03
2023-04-18T11:57:30.585Z,64.12
2023-04-18T11:58:34.838Z,64.10
2023-04-18T11:59:38.416Z,64.30
2023-04-18T12:00:43.775Z,64.17
2023-04-18T12:01:46.236Z,64.27
2023-04-18T12:02:51.599Z,64.15
2023-04-18T12:04:08.107Z,64.25
2023-04-18T12:05:15.459Z,64.16
2023-04-18T12:06:18.032Z,63.91
2023-04-18T12:07:41.041Z,63.93
2023-04-18T12:08:43.484Z,63.93
2023-04-18T12:09:45.810Z,63.92
2023-04-18T12:10:52.477Z,63.97
2023-04-18T12:12:03.086Z,63.95
2023-04-18T12:13:09.060Z,64.04
2023-04-18T12:14:22.048Z,63.98
2023-04-18T12:15:29.705Z,63.93
2023-04-18T12:16:33.640Z,64.20
2023-04-18T12:17:38.206Z,64.27
2023-04-18T12:18:42.357Z,64.28
2023-04-18T12:19:49.235Z,64.41
2023-04-18T12:20:54.593Z,64.36
2023-04-18T12:22:01.775Z,64.17
2023-04-18T12:23:04.764Z,64.12
2023-04-18T12:24:16.009Z,64.04
2023-04-18T12:25:27.145Z,63.73
2023-04-18T12:26:29.808Z,63.89
2023-04-18T12:27:55.205Z,63.64
2023-04-18T12:29:01.260Z,63.54
2023-04-18T12:30:04.236Z,63.54
2023-04-18T12:31:08.543Z,63.38
2023-04-18T12:32:10.818Z,63.57
2023-04-18T12:33:14.280Z,63.53
2023-04-18T12:34:16.529Z,63.46
2023-04-18T12:35:20.244Z,63.46
2023-04-18T12:36:23.618Z,63.46
2023-04-18T12:37:27.513Z,63.47
2023-04-18T12:38:29.796Z,63.33
2023-04-18T12:39:32.057Z,63.30
2023-04-18T12:40:34.344Z,63.45
2023-04-18T12:41:36.887Z,63.53
2023-04-18T12:42:41.037Z,63.46
2023-04-18T12:43:43.339Z,63.53
2023-04-18T12:44:47.621Z,63.64
2023-04-18T12:45:50.892Z,63.74
2023-04-18T12:46:53.367Z,63.68
2023-04-18T12:47:56.968Z,63.72
2023-04-18T12:49:00.565Z,63.74
2023-04-18T12:50:03.150Z,63.78
2023-04-18T12:51:07.419Z,63.74
2023-04-18T12:52:09.721Z,63.77
2023-04-18T12:53:13.462Z,63.87
2023-04-18T12:54:16.000Z,63.88
2023-04-18T12:55:18.511Z,63.93
2023-04-18T12:56:21.453Z,64.02
2023-04-18T12:57:27.447Z,64.13
2023-04-18T12:58:29.779Z,64.08
2023-04-18T12:59:32.414Z,63.91
2023-04-18T13:00:35.275Z,64.05
2023-04-18T13:01:37.655Z,64.04
2023-04-18T13:02:42.787Z,63.98
2023-04-18T13:03:48.589Z,63.96
2023-04-18T13:04:56.895Z,64.00
2023-04-18T13:05:59.224Z,63.94
2023-04-18T13:07:01.618Z,64.05
2023-04-18T13:08:16.246Z,64.19
2023-04-18T13:09:19.821Z,64.26
2023-04-18T13:10:25.415Z,64.22
2023-04-18T13:11:29.250Z,64.29
2023-04-18T13:12:31.538Z,64.17
2023-04-18T13:13:35.187Z,64.31
2023-04-18T13:14:38.752Z,64.16
2023-04-18T13:15:41.465Z,64.19
2023-04-18T13:16:44.161Z,64.35
2023-04-18T13:17:47.497Z,64.25
2023-04-18T13:18:49.808Z,64.19
2023-04-18T13:19:52.186Z,64.22
2023-04-18T13:20:54.473Z,64.51
2023-04-18T13:21:57.265Z,64.45
2023-04-18T13:22:59.543Z,64.29
2023-04-18T13:24:01.856Z,64.22
2023-04-18T13:25:04.500Z,64.24
2023-04-18T13:26:08.598Z,64.32
2023-04-18T13:27:10.852Z,64.28
2023-04-18T13:28:13.098Z,64.36
2023-04-18T13:29:15.626Z,64.32
2023-04-18T13:30:18.844Z,64.30
2023-04-18T13:31:21.562Z,64.19
2023-04-18T13:32:24.333Z,64.12
2023-04-18T13:33:26.635Z,64.02
2023-04-18T13:34:29.918Z,64.17
2023-04-18T13:35:32.253Z,64.06
2023-04-18T13:36:35.216Z,64.11
2023-04-18T13:37:38.431Z,64.09
2023-04-18T13:38:40.804Z,64.12
2023-04-18T13:39:43.271Z,64.01
2023-04-18T13:40:46.602Z,64.04
2023-04-18T13:41:49.080Z,64.01
2023-04-18T13:42:51.714Z,64.04
2023-04-18T13:43:53.990Z,64.08
2023-04-18T13:44:58.091Z,64.01
2023-04-18T13:46:00.678Z,64.24
2023-04-18T13:47:04.332Z,64.22
2023-04-18T13:48:06.999Z,64.19
2023-04-18T13:49:09.339Z,64.39
2023-04-18T13:50:11.946Z,64.25
2023-04-18T13:51:14.246Z,64.41